createdAt,value
2023-03-02T00:03:51.790Z,-4.20
2023-03-02T00:24:30.522Z,-4.40
2023-03-02T00:30:02.849Z,-4.40
2023-03-02T03:40:01.586Z,-5.40
2023-03-02T03:46:57.940Z,-5.40
2023-03-02T05:20:15.184Z,-4.70
2023-03-02T06:50:49.874Z,-1.10
2023-03-02T07:09:14.622Z,-0.80
2023-03-02T07:20:36.370Z,-0.40
2023-03-02T07:26:01.714Z,-0.50
2023-03-02T07:31:41.715Z,-0.10
2023-03-02T07:37:21.272Z,0.10
2023-03-02T07:42:47.956Z,0.60
2023-03-02T09:24:54.222Z,5.40
2023-03-02T09:30:31.200Z,2.90
2023-03-02T10:07:19.734Z,6.00
2023-03-02T10:13:30.567Z,5.90
2023-03-02T10:19:49.129Z,6.10
2023-03-02T10:25:35.828Z,6.20
2023-03-02T10:31:45.191Z,6.10
2023-03-02T10:58:59.281Z,5.80
2023-03-02T11:11:14.651Z,6.20
2023-03-02T11:17:51.824Z,5.90
2023-03-02T11:31:48.666Z,6.70
2023-03-02T11:37:57.402Z,6.40
2023-03-02T11:43:23.569Z,6.40
2023-03-02T11:49:32.568Z,6.40
2023-03-02T11:55:12.790Z,6.90
2023-03-02T12:01:01.077Z,6.80
2023-03-02T12:06:25.092Z,3.50
2023-03-02T12:18:21.119Z,6.70
2023-03-02T12:24:03.840Z,6.80
2023-03-02T12:29:56.541Z,7.00
2023-03-02T12:43:31.476Z,6.80
2023-03-02T13:03:51.545Z,6.10
2023-03-02T13:09:19.527Z,6.00
2023-03-02T13:14:46.958Z,5.30
2023-03-02T13:20:39.093Z,5.50
2023-03-02T13:26:10.573Z,5.60
2023-03-02T13:31:57.512Z,5.30
2023-03-02T14:02:59.464Z,4.70
2023-03-02T14:08:24.592Z,4.70
2023-03-02T14:13:58.011Z,4.60
2023-03-02T14:19:22.452Z,4.70
2023-03-02T14:25:24.728Z,4.50
2023-03-02T14:30:50.223Z,4.20
2023-03-02T14:36:47.588Z,4.10
2023-03-02T14:42:06.752Z,4.10
2023-03-02T14:47:25.141Z,0.80
2023-03-02T14:53:06.173Z,4.00
2023-03-02T14:58:38.007Z,3.90
2023-03-02T15:42:38.044Z,3.20
2023-03-02T15:48:02.771Z,3.10
2023-03-02T15:53:25.357Z,3.10
2023-03-02T15:59:38.994Z,3.00
2023-03-02T16:05:21.912Z,3.70
2023-03-02T16:10:48.597Z,2.90
2023-03-02T16:16:57.376Z,2.90
2023-03-02T16:22:38.146Z,2.70
2023-03-02T16:28:06.748Z,2.70
2023-03-02T16:33:27.991Z,2.60
2023-03-02T16:38:54.958Z,2.60
2023-03-02T17:00:37.431Z,2.20
2023-03-02T17:05:43.260Z,2.20
2023-03-02T17:15:49.021Z,2.20
2023-03-02T17:20:52.606Z,2.10
2023-03-02T17:31:00.668Z,2.10
2023-03-02T17:36:11.971Z,2.10
2023-03-02T17:41:14.904Z,2.10
2023-03-02T17:46:20.533Z,2.10
2023-03-02T17:51:24.349Z,2.20
2023-03-02T17:56:28.424Z,2.20
2023-03-02T18:01:32.409Z,2.30
2023-03-02T18:06:36.175Z,2.20
2023-03-02T18:11:41.479Z,2.00
2023-03-02T18:16:44.292Z,2.00
2023-03-02T18:21:47.316Z,2.00
2023-03-02T18:26:49.922Z,1.90
2023-03-02T18:31:53.304Z,2.00
2023-03-02T18:36:56.062Z,1.70
2023-03-02T18:41:58.636Z,1.50
2023-03-02T18:47:02.152Z,1.50
2023-03-02T18:52:06.912Z,1.50
2023-03-02T18:57:10.293Z,1.40
2023-03-02T19:02:14.294Z,1.10
2023-03-02T19:07:17.253Z,0.70
2023-03-02T19:22:26.884Z,-1.00
2023-03-02T19:47:43.108Z,-2.20
2023-03-02T20:03:01.739Z,-2.30
2023-03-02T20:13:09.308Z,-2.20
2023-03-02T20:18:19.122Z,-2.60
2023-03-02T20:28:26.335Z,-2.80
2023-03-02T20:33:35.135Z,-2.90
2023-03-02T20:38:44.320Z,-2.90
2023-03-02T20:43:47.170Z,-3.00
2023-03-02T21:03:59.037Z,-2.40
2023-03-02T21:09:02.870Z,-2.30
2023-03-02T21:19:14.203Z,-1.90
2023-03-02T21:29:22.818Z,-1.50
2023-03-02T21:54:37.447Z,-0.60
2023-03-02T22:09:46.434Z,-0.50
2023-03-02T22:14:49.994Z,-0.40
2023-03-02T22:19:54.247Z,-0.40
2023-03-02T22:30:02.883Z,-0.20
2023-03-02T22:35:25.768Z,-0.20
2023-03-02T22:40:31.744Z,-0.10
2023-03-02T22:45:35.512Z,-0.10
2023-03-02T22:55:43.186Z,-0.10
2023-03-02T23:06:30.548Z,0.10
2023-03-02T23:12:00.221Z,0.20
2023-03-02T23:17:13.460Z,0.20
2023-03-02T23:27:19.948Z,0.20
2023-03-02T23:32:31.229Z,0.10
2023-03-02T23:42:37.484Z,0.10
2023-03-02T23:52:45.427Z,0.10
2023-03-02T23:57:48.249Z,0.20
